LIPH

Treviso-Sant'Angelo Airport

Treviso, Italy
TAF LIPH 241700Z 2418/2518 09013KT 9999 SCT030 BECMG 2418/2421 01007KT
Issued Valid From Valid To
Sep-24 @ 17:00 UTC
(3 hours ago)
Sep-24 @ 18:00 UTC
(2 hours ago)
Sep-25 @ 18:00 UTC
(in 22 hours)
Sep-24 @ 18:00 to Sep-25 @ 18:00
TAF LIPH 241700Z 2418/2518 09013KT 9999 SCT030
Wind Visibility Clouds
90° at 13 knots 10,000+ meters
  • Scattered at 3,000' AGL
Becoming Sep-24 @ 18:00 to Sep-25 @ 18:00
BECMG 2418/2421 01007KT
Wind Visibility Clouds
10° at 7 knots 10,000+ meters
  • Scattered at 3,000' AGL
TAF LIPH 241700Z 2418/2518 09013KT 9999 SCT030 BECMG 2418/2421 01007KT
Issued Sep-24 @ 17:00 UTC
(3 hours ago)
Valid From Sep-24 @ 18:00 UTC
(2 hours ago)
Valid To Sep-25 @ 18:00 UTC
(in 22 hours)
Sep-24 @ 18:00 - Sep-25 @ 18:00
Wind Visibility
90° at 13 knots 10,000+ meters
Clouds
  • Scattered at 3,000' AGL
Becoming Sep-24 @ 18:00 - Sep-25 @ 18:00
Wind Visibility
10° at 7 knots 10,000+ meters
Clouds
  • Scattered at 3,000' AGL